Time;durP1;ratioP1;P1;durP2;ratioP2;P2;SDS_P1;SDS_P2;PMS_P1;PMS_P2;Temp;Humidity;BMP_temperature;BMP_pressure;BME280_temperature;BME280_humidity;BME280_pressure;Samples;Min_cycle;Max_cycle;Signal;HPM_P1;HPM_P2
2023/01/17 00:01:08;;;;;;;1.83;1.73;;;3.50;99.90;;;;;;5060567;28;20176;-88
2023/01/17 00:09:51;;;;;;;1.60;1.50;;;3.60;99.90;;;;;;5060830;28;20263;-89
2023/01/17 00:11:58;;;;;;;2.97;1.70;;;3.60;99.90;;;;;;5040743;28;20204;-89
2023/01/17 00:14:24;;;;;;;1.60;1.50;;;3.50;99.90;;;;;;5040465;28;20176;-88
2023/01/17 00:16:50;;;;;;;2.53;1.87;;;3.50;99.90;;;;;;5040656;28;20197;-88
2023/01/17 01:33:50;;;;;;;2.23;2.07;;;3.20;97.50;;;;;;5043555;28;20351;-87
2023/01/17 01:36:16;;;;;;;2.73;2.13;;;3.30;97.80;;;;;;5043325;28;20739;-88
2023/01/17 01:38:42;;;;;;;2.87;2.00;;;3.30;97.40;;;;;;5059241;28;20205;-89
2023/01/17 01:41:07;;;;;;;2.77;2.27;;;3.30;97.00;;;;;;5062286;28;20180;-87
2023/01/17 01:43:45;;;;;;;3.43;2.40;;;3.40;96.90;;;;;;5062533;28;20168;-88
2023/01/17 01:46:24;;;;;;;2.43;2.20;;;3.40;97.00;;;;;;5062469;28;20195;-88
2023/01/17 01:49:23;;;;;;;2.87;2.00;;;3.40;96.70;;;;;;5062781;28;20220;-87
2023/01/17 01:51:58;;;;;;;3.63;2.30;;;3.40;96.90;;;;;;5059602;28;20286;-89
2023/01/17 01:54:35;;;;;;;3.00;2.10;;;3.30;97.70;;;;;;5061418;28;20187;-88
2023/01/17 01:57:05;;;;;;;3.37;2.33;;;3.30;96.90;;;;;;5062165;28;20203;-88
2023/01/17 01:59:32;;;;;;;3.37;2.07;;;3.30;97.20;;;;;;5062564;28;20175;-88
2023/01/17 02:01:58;;;;;;;3.67;2.43;;;3.30;97.20;;;;;;5062973;28;20192;-88
2023/01/17 02:04:27;;;;;;;2.37;2.17;;;3.20;97.80;;;;;;5063175;28;20254;-88
2023/01/17 02:07:02;;;;;;;3.23;2.17;;;3.20;97.80;;;;;;5061141;28;20196;-88
2023/01/17 02:09:28;;;;;;;4.27;2.60;;;3.30;97.40;;;;;;5055853;28;20573;-88
2023/01/17 02:11:54;;;;;;;3.40;2.33;;;3.30;98.00;;;;;;5046193;28;20254;-89
2023/01/17 02:14:21;;;;;;;2.47;2.27;;;3.30;97.40;;;;;;5070531;28;20212;-91
2023/01/17 02:17:03;;;;;;;4.27;2.33;;;3.10;98.00;;;;;;5073867;28;20208;-91
2023/01/17 02:20:09;;;;;;;2.67;2.47;;;3.10;98.50;;;;;;5077629;28;20206;-91
2023/01/17 02:23:02;;;;;;;2.77;2.30;;;3.00;99.00;;;;;;5038009;28;20150;-88
2023/01/17 02:25:49;;;;;;;4.63;2.70;;;3.00;99.30;;;;;;5022429;28;20337;-88
2023/01/17 02:28:41;;;;;;;3.93;2.60;;;3.00;99.30;;;;;;5039421;28;20221;-88
2023/01/17 02:31:16;;;;;;;3.10;2.40;;;3.10;99.90;;;;;;5039511;28;20227;-89
2023/01/17 02:33:56;;;;;;;2.33;2.00;;;3.10;99.90;;;;;;5071897;28;20212;-88
2023/01/17 02:36:29;;;;;;;3.10;2.27;;;3.20;99.90;;;;;;5041236;28;20817;-89
2023/01/17 02:38:54;;;;;;;3.23;2.47;;;3.10;99.90;;;;;;5040916;28;20232;-89
2023/01/17 02:41:36;;;;;;;3.03;2.30;;;3.10;99.90;;;;;;5040911;28;20228;-88
2023/01/17 02:44:02;;;;;;;2.63;2.20;;;3.10;99.90;;;;;;5040977;28;20244;-88
2023/01/17 02:46:28;;;;;;;2.57;2.17;;;3.10;99.90;;;;;;5040969;28;20259;-89
2023/01/17 02:48:56;;;;;;;2.90;2.33;;;3.20;99.90;;;;;;5043763;28;20189;-89
2023/01/17 02:51:37;;;;;;;2.43;2.20;;;3.20;99.90;;;;;;5051815;28;20674;-88
2023/01/17 02:54:21;;;;;;;2.30;2.10;;;3.20;99.90;;;;;;5060518;28;20190;-88
2023/01/17 02:56:56;;;;;;;2.70;2.00;;;3.10;99.90;;;;;;5060198;28;20258;-88
2023/01/17 02:59:50;;;;;;;1.90;1.80;;;3.10;99.90;;;;;;5055849;28;20650;-88
2023/01/17 03:02:21;;;;;;;2.40;2.20;;;3.20;99.90;;;;;;5041865;28;20203;-88
2023/01/17 03:05:17;;;;;;;2.03;1.93;;;3.20;99.90;;;;;;5041604;28;20165;-88
2023/01/17 03:07:43;;;;;;;2.63;1.97;;;3.30;99.90;;;;;;5034774;28;20216;-88
2023/01/17 03:10:11;;;;;;;1.87;1.77;;;3.20;99.90;;;;;;5041891;28;20215;-88
2023/01/17 03:12:38;;;;;;;2.70;2.17;;;3.20;99.90;;;;;;5038301;28;20265;-88
2023/01/17 03:15:09;;;;;;;3.33;1.90;;;3.10;99.90;;;;;;5038466;28;20241;-90
2023/01/17 03:17:36;;;;;;;2.13;1.90;;;3.20;99.90;;;;;;5057218;28;20208;-92
2023/01/17 03:20:01;;;;;;;1.60;1.50;;;3.20;99.90;;;;;;5057125;28;20165;-90
2023/01/17 03:22:27;;;;;;;2.20;2.00;;;3.30;99.90;;;;;;5070017;28;20180;-90
2023/01/17 03:24:53;;;;;;;3.10;1.80;;;3.20;99.90;;;;;;5058120;28;20212;-88
2023/01/17 03:27:18;;;;;;;1.93;1.70;;;3.20;99.90;;;;;;5058801;28;20204;-88
2023/01/17 03:29:44;;;;;;;1.70;1.60;;;3.20;99.90;;;;;;5058380;28;20630;-89
2023/01/17 03:32:09;;;;;;;2.33;1.70;;;3.20;99.90;;;;;;5057632;28;20208;-89
2023/01/17 03:34:35;;;;;;;2.00;1.80;;;3.20;99.90;;;;;;5059735;28;20246;-88
2023/01/17 03:37:01;;;;;;;1.97;1.70;;;3.20;99.90;;;;;;5059074;28;20245;-89
2023/01/17 03:39:26;;;;;;;1.67;1.57;;;3.20;99.90;;;;;;5058456;28;20192;-88
2023/01/17 03:41:52;;;;;;;1.60;1.50;;;3.10;99.90;;;;;;5059305;28;20184;-88
2023/01/17 03:44:18;;;;;;;2.93;1.60;;;3.20;99.90;;;;;;5059832;28;20179;-89
2023/01/17 03:46:43;;;;;;;2.33;1.60;;;3.20;99.90;;;;;;5059180;28;20294;-89
2023/01/17 03:49:09;;;;;;;3.47;1.50;;;3.10;99.90;;;;;;5048924;28;20196;-88
2023/01/17 03:51:35;;;;;;;1.70;1.60;;;3.10;99.90;;;;;;5039873;28;20546;-89
2023/01/17 03:54:00;;;;;;;1.83;1.73;;;3.10;99.90;;;;;;5040295;28;20181;-89
2023/01/17 03:56:26;;;;;;;1.90;1.80;;;3.10;99.90;;;;;;5039966;28;20197;-90
2023/01/17 03:58:52;;;;;;;1.70;1.60;;;3.10;99.90;;;;;;5038672;28;20185;-89
2023/01/17 04:01:18;;;;;;;2.27;1.57;;;3.10;99.90;;;;;;5039755;28;20177;-89
2023/01/17 04:03:43;;;;;;;2.47;1.80;;;3.00;99.90;;;;;;5039093;28;20277;-88
2023/01/17 04:06:09;;;;;;;1.83;1.60;;;3.00;99.90;;;;;;5046535;28;20204;-89
2023/01/17 04:08:35;;;;;;;1.70;1.60;;;3.10;99.90;;;;;;5025993;28;20180;-89
2023/01/17 04:11:00;;;;;;;2.57;1.80;;;3.00;99.90;;;;;;5059199;28;20269;-89
2023/01/17 04:13:26;;;;;;;1.93;1.67;;;3.10;99.90;;;;;;5059113;28;20196;-89
2023/01/17 04:15:52;;;;;;;1.83;1.70;;;3.10;99.90;;;;;;5057644;28;20184;-89
2023/01/17 04:18:19;;;;;;;2.13;1.80;;;3.00;99.90;;;;;;5058183;28;20188;-88
2023/01/17 04:20:46;;;;;;;2.03;1.70;;;2.90;99.90;;;;;;5057851;28;20681;-90
2023/01/17 04:23:11;;;;;;;3.70;1.93;;;2.90;99.90;;;;;;5055571;28;20184;-89
2023/01/17 04:25:37;;;;;;;2.43;1.60;;;3.00;99.90;;;;;;5057756;28;20778;-90
2023/01/17 04:28:03;;;;;;;1.80;1.70;;;3.10;99.90;;;;;;5052695;28;20246;-88
2023/01/17 04:30:30;;;;;;;1.93;1.80;;;3.20;99.90;;;;;;5048857;28;20775;-88
2023/01/17 04:32:56;;;;;;;2.70;1.90;;;3.20;99.90;;;;;;5057882;28;20206;-89
2023/01/17 04:35:22;;;;;;;1.80;1.70;;;3.30;99.90;;;;;;5059362;28;20215;-91
2023/01/17 04:37:48;;;;;;;1.93;1.83;;;3.40;99.90;;;;;;5058542;28;20204;-89
2023/01/17 04:40:13;;;;;;;1.87;1.70;;;3.30;99.90;;;;;;5040558;28;20235;-88
2023/01/17 04:42:39;;;;;;;2.77;1.80;;;3.20;99.90;;;;;;5039032;28;20188;-90
2023/01/17 04:45:06;;;;;;;2.17;1.97;;;3.10;99.90;;;;;;5039001;28;20268;-88
2023/01/17 04:47:35;;;;;;;2.17;1.60;;;3.10;99.90;;;;;;5040334;28;20220;-90
2023/01/17 04:50:02;;;;;;;1.90;1.80;;;3.00;99.90;;;;;;5041353;28;20192;-90
2023/01/17 04:52:27;;;;;;;2.07;1.80;;;2.90;99.90;;;;;;5041179;28;20200;-89
2023/01/17 04:54:53;;;;;;;1.60;1.50;;;2.90;99.90;;;;;;5045741;28;20235;-89
2023/01/17 04:57:20;;;;;;;2.13;1.93;;;3.10;99.90;;;;;;5065772;28;20246;-89
2023/01/17 04:59:46;;;;;;;1.80;1.70;;;3.30;99.90;;;;;;5070514;28;20187;-88
2023/01/17 05:02:13;;;;;;;1.70;1.60;;;3.40;99.90;;;;;;5060957;28;20218;-89
2023/01/17 05:04:39;;;;;;;2.93;1.80;;;3.40;99.90;;;;;;5067178;28;20208;-88
2023/01/17 05:07:05;;;;;;;2.00;1.80;;;3.40;99.90;;;;;;5053402;28;20299;-88
2023/01/17 05:09:30;;;;;;;2.23;1.63;;;3.50;99.90;;;;;;5048220;28;20185;-88
2023/01/17 05:11:56;;;;;;;5.17;3.47;;;3.60;99.90;;;;;;5048174;28;20196;-89
2023/01/17 05:14:25;;;;;;;3.97;3.10;;;3.60;99.90;;;;;;5045726;28;20181;-90
2023/01/17 05:16:52;;;;;;;3.20;3.00;;;3.60;99.80;;;;;;5044487;28;20189;-88
2023/01/17 05:19:18;;;;;;;3.50;2.13;;;3.50;99.90;;;;;;5046170;28;20177;-90
2023/01/17 05:21:44;;;;;;;3.50;3.20;;;3.50;99.90;;;;;;5040217;28;20169;-90
2023/01/17 05:24:09;;;;;;;3.67;3.40;;;3.40;99.70;;;;;;5038253;28;20173;-89
2023/01/17 05:26:35;;;;;;;2.60;2.40;;;3.30;99.50;;;;;;5039157;28;20280;-88
2023/01/17 05:29:00;;;;;;;4.07;3.83;;;3.30;99.60;;;;;;5038476;28;20254;-89
2023/01/17 05:31:26;;;;;;;2.30;2.10;;;3.20;99.90;;;;;;5041815;28;20169;-87
2023/01/17 05:33:52;;;;;;;2.00;1.80;;;3.30;99.90;;;;;;5042851;28;20184;-87
2023/01/17 05:36:17;;;;;;;2.87;2.27;;;3.30;99.90;;;;;;5042285;28;20221;-89
2023/01/17 05:38:43;;;;;;;2.37;2.17;;;3.30;99.90;;;;;;5053841;28;20706;-88
2023/01/17 05:41:08;;;;;;;3.17;2.10;;;3.20;99.90;;;;;;5062280;28;20279;-89
2023/01/17 05:43:34;;;;;;;1.90;1.77;;;3.10;99.90;;;;;;5065717;28;20203;-88
2023/01/17 05:45:59;;;;;;;2.23;1.63;;;3.30;99.90;;;;;;5065719;28;20187;-89
2023/01/17 05:48:25;;;;;;;2.03;1.90;;;3.30;99.90;;;;;;5065389;28;20208;-89
2023/01/17 05:50:51;;;;;;;2.90;1.73;;;3.30;99.90;;;;;;5064911;28;20288;-88
2023/01/17 05:53:18;;;;;;;2.00;1.87;;;3.20;99.90;;;;;;5065986;28;20208;-88
2023/01/17 05:55:44;;;;;;;1.77;1.67;;;3.30;99.90;;;;;;5065307;28;20168;-89
2023/01/17 05:58:16;;;;;;;1.63;1.53;;;3.20;99.80;;;;;;5062728;28;20197;-88
2023/01/17 06:00:42;;;;;;;1.90;1.80;;;3.20;99.90;;;;;;5045927;28;20165;-89
2023/01/17 06:03:07;;;;;;;3.23;2.50;;;3.20;99.90;;;;;;5045502;28;20192;-90
2023/01/17 06:05:33;;;;;;;5.93;5.37;;;3.20;99.90;;;;;;5043940;28;20188;-87
2023/01/17 06:07:59;;;;;;;10.07;8.03;;;3.20;99.90;;;;;;5054669;28;20209;-88
2023/01/17 06:10:25;;;;;;;10.23;9.20;;;3.10;99.90;;;;;;5042772;28;20200;-87
2023/01/17 06:13:05;;;;;;;8.47;7.63;;;3.10;99.90;;;;;;5041110;28;20205;-86
2023/01/17 06:15:31;;;;;;;5.13;3.57;;;3.10;99.90;;;;;;5042552;28;20180;-86
2023/01/17 06:17:56;;;;;;;8.83;6.40;;;3.10;99.90;;;;;;5043215;28;20201;-87
2023/01/17 06:20:22;;;;;;;7.83;5.67;;;3.10;99.90;;;;;;5046139;28;20545;-87
2023/01/17 06:22:48;;;;;;;3.33;3.03;;;3.20;99.90;;;;;;5061761;28;20176;-87
2023/01/17 06:25:13;;;;;;;2.80;2.33;;;3.10;99.90;;;;;;5061983;28;20306;-87
2023/01/17 06:27:39;;;;;;;2.40;2.20;;;3.10;99.90;;;;;;5057538;28;20232;-87
2023/01/17 06:30:05;;;;;;;2.77;2.57;;;3.10;99.90;;;;;;5041201;28;20256;-88
2023/01/17 06:32:31;;;;;;;6.60;4.90;;;3.20;99.90;;;;;;5067673;28;20227;-89
2023/01/17 06:34:57;;;;;;;12.87;8.20;;;3.30;99.90;;;;;;5077870;28;20176;-90
2023/01/17 06:37:23;;;;;;;18.53;12.90;;;3.30;99.90;;;;;;5074077;28;20203;-88
2023/01/17 06:39:48;;;;;;;11.33;9.97;;;3.30;99.90;;;;;;5073472;28;20172;-91
2023/01/17 06:42:14;;;;;;;5.00;3.63;;;3.40;99.90;;;;;;5070197;28;20553;-87
2023/01/17 06:44:39;;;;;;;7.20;6.23;;;3.50;99.90;;;;;;5051062;28;20215;-87
2023/01/17 06:47:05;;;;;;;6.17;5.57;;;3.60;99.90;;;;;;5048164;28;20251;-85
2023/01/17 06:49:31;;;;;;;6.03;5.43;;;3.60;99.90;;;;;;5048138;28;20165;-88
2023/01/17 06:51:56;;;;;;;4.33;3.70;;;3.50;99.90;;;;;;5045444;28;20234;-88
2023/01/17 06:54:22;;;;;;;3.93;3.17;;;3.50;99.90;;;;;;5046374;28;20227;-88
2023/01/17 06:56:48;;;;;;;7.70;4.57;;;3.50;99.90;;;;;;5041954;28;20225;-87
2023/01/17 06:59:13;;;;;;;6.30;4.43;;;3.50;99.90;;;;;;5046369;28;20184;-89
2023/01/17 07:01:40;;;;;;;5.20;4.40;;;3.40;99.90;;;;;;5041312;28;20192;-88
2023/01/17 07:04:06;;;;;;;8.67;5.70;;;3.50;99.90;;;;;;5039683;28;20181;-87
2023/01/17 07:06:33;;;;;;;5.03;3.13;;;3.40;99.90;;;;;;5038156;28;20201;-90
2023/01/17 07:08:59;;;;;;;5.60;3.73;;;3.40;99.90;;;;;;5035189;28;20381;-87
2023/01/17 07:11:26;;;;;;;4.47;3.77;;;3.50;99.90;;;;;;5037571;28;20248;-87
2023/01/17 07:13:52;;;;;;;5.90;4.37;;;3.50;99.90;;;;;;5036042;28;20217;-89
2023/01/17 07:16:17;;;;;;;4.93;3.20;;;3.60;99.90;;;;;;5031729;28;20277;-86
2023/01/17 07:18:43;;;;;;;3.40;3.10;;;3.50;99.90;;;;;;5030038;28;20249;-88
2023/01/17 07:21:13;;;;;;;5.73;4.23;;;3.40;99.90;;;;;;5028692;28;20196;-87
2023/01/17 07:23:39;;;;;;;4.47;3.50;;;3.50;99.90;;;;;;5033382;28;20185;-88
2023/01/17 07:26:05;;;;;;;3.97;3.30;;;3.50;99.90;;;;;;5029475;28;20202;-87
2023/01/17 07:28:31;;;;;;;6.90;3.63;;;3.50;99.90;;;;;;5032937;28;20254;-89
2023/01/17 07:30:57;;;;;;;4.40;3.20;;;3.50;99.90;;;;;;5030809;28;20197;-87
2023/01/17 07:33:23;;;;;;;4.43;3.80;;;3.50;99.90;;;;;;5031441;28;20274;-88
2023/01/17 07:35:48;;;;;;;4.40;3.77;;;3.60;99.90;;;;;;5032791;28;20187;-87
2023/01/17 07:38:16;;;;;;;6.83;4.27;;;3.70;99.90;;;;;;5032737;28;20197;-88
2023/01/17 07:40:42;;;;;;;5.33;3.90;;;3.70;99.90;;;;;;5030466;28;20189;-87
2023/01/17 07:43:13;;;;;;;4.50;2.90;;;3.80;99.90;;;;;;5033318;28;20242;-88
2023/01/17 07:45:41;;;;;;;4.03;2.47;;;3.70;99.90;;;;;;5034833;28;20185;-88
2023/01/17 07:48:07;;;;;;;5.30;4.10;;;3.60;99.90;;;;;;5035886;28;20224;-87
2023/01/17 07:50:32;;;;;;;3.83;3.40;;;3.60;99.90;;;;;;5035394;28;20553;-88
2023/01/17 07:52:58;;;;;;;4.57;3.20;;;3.70;99.90;;;;;;5033005;28;20228;-88
2023/01/17 07:55:24;;;;;;;3.97;2.87;;;3.70;99.90;;;;;;5033770;28;20260;-87
2023/01/17 07:57:49;;;;;;;3.63;3.20;;;3.80;99.90;;;;;;5030362;28;20216;-86
2023/01/17 08:00:16;;;;;;;8.93;6.30;;;3.90;99.90;;;;;;5029651;28;20757;-87
2023/01/17 08:02:41;;;;;;;11.00;7.23;;;3.80;99.90;;;;;;5031681;28;20181;-88
2023/01/17 08:05:07;;;;;;;7.20;4.97;;;3.80;99.90;;;;;;5028889;28;20188;-88
2023/01/17 08:07:33;;;;;;;8.93;6.43;;;3.80;99.90;;;;;;5030475;28;20220;-90
2023/01/17 08:10:00;;;;;;;7.03;6.33;;;3.80;99.90;;;;;;5031726;28;20797;-89
2023/01/17 08:12:25;;;;;;;10.10;6.67;;;3.80;99.90;;;;;;5031294;28;20201;-90
2023/01/17 08:14:51;;;;;;;4.67;4.13;;;3.90;99.90;;;;;;5030140;28;20429;-90
2023/01/17 08:17:17;;;;;;;4.07;3.67;;;3.90;99.90;;;;;;5031012;28;20274;-89
2023/01/17 08:19:43;;;;;;;7.13;6.03;;;3.90;99.90;;;;;;5029623;28;20617;-88
2023/01/17 08:22:10;;;;;;;6.90;6.03;;;3.90;99.90;;;;;;5029820;28;20304;-88
2023/01/17 08:24:37;;;;;;;7.07;5.40;;;3.90;99.90;;;;;;5027443;28;20192;-87
2023/01/17 08:27:03;;;;;;;7.83;6.00;;;4.00;99.90;;;;;;5032207;28;20219;-90
2023/01/17 08:29:28;;;;;;;16.97;11.90;;;4.10;99.90;;;;;;5029221;28;20212;-88
2023/01/17 08:31:54;;;;;;;14.00;11.30;;;4.20;99.90;;;;;;5034903;28;20767;-88
2023/01/17 08:34:20;;;;;;;13.57;10.00;;;4.20;99.90;;;;;;5033299;28;20341;-87
2023/01/17 08:36:46;;;;;;;5.97;5.33;;;4.20;99.90;;;;;;5031029;28;20370;-87
2023/01/17 08:39:13;;;;;;;7.40;5.47;;;4.10;98.50;;;;;;5031051;28;20196;-89
2023/01/17 08:41:39;;;;;;;4.87;4.40;;;3.90;99.90;;;;;;5032839;28;20208;-89
2023/01/17 08:44:05;;;;;;;4.23;3.83;;;4.00;99.90;;;;;;5031671;28;20840;-87
2023/01/17 08:46:31;;;;;;;4.20;3.73;;;3.90;99.90;;;;;;5041894;28;20208;-89
2023/01/17 08:48:58;;;;;;;6.03;4.70;;;4.10;99.90;;;;;;5048084;28;20216;-89
2023/01/17 08:51:28;;;;;;;4.00;3.60;;;4.30;97.90;;;;;;5044219;28;20223;-87
2023/01/17 08:53:55;;;;;;;4.47;3.53;;;4.40;97.20;;;;;;5040301;28;20216;-87
2023/01/17 08:56:22;;;;;;;4.40;3.90;;;4.40;97.20;;;;;;5027105;28;20287;-89
2023/01/17 08:58:48;;;;;;;5.90;3.40;;;4.40;97.60;;;;;;5023691;28;20185;-88
2023/01/17 09:01:14;;;;;;;5.13;3.17;;;4.40;96.20;;;;;;5026646;28;20303;-87
2023/01/17 09:03:40;;;;;;;4.90;3.17;;;4.40;95.10;;;;;;5029410;28;20235;-88
2023/01/17 09:06:11;;;;;;;5.47;3.13;;;4.30;95.90;;;;;;5027371;28;20271;-86
2023/01/17 09:08:37;;;;;;;3.90;2.90;;;4.30;96.10;;;;;;5023520;28;20196;-87
2023/01/17 09:11:04;;;;;;;3.13;2.77;;;4.30;95.90;;;;;;5022208;28;20197;-88
2023/01/17 09:13:30;;;;;;;3.83;3.00;;;4.30;94.50;;;;;;5026327;28;20223;-88
2023/01/17 09:15:57;;;;;;;4.57;2.87;;;4.50;95.30;;;;;;5025230;28;20447;-87
2023/01/17 09:18:26;;;;;;;4.43;3.40;;;4.50;95.20;;;;;;5024198;28;20215;-87
2023/01/17 09:20:58;;;;;;;4.83;2.93;;;4.40;95.70;;;;;;5024941;28;20686;-88
2023/01/17 09:23:26;;;;;;;4.33;3.37;;;4.50;96.60;;;;;;5027184;28;20372;-90
2023/01/17 09:25:56;;;;;;;4.30;3.63;;;4.40;96.30;;;;;;5027239;28;20181;-87
2023/01/17 09:28:21;;;;;;;3.60;3.30;;;4.40;96.40;;;;;;5026612;28;20355;-87
2023/01/17 09:30:47;;;;;;;4.67;3.60;;;4.50;94.90;;;;;;5026438;28;20221;-87
2023/01/17 09:33:14;;;;;;;6.50;3.63;;;4.60;94.30;;;;;;5030830;28;20247;-88
2023/01/17 09:35:39;;;;;;;7.30;4.60;;;4.60;93.60;;;;;;5025748;28;20189;-88
2023/01/17 09:38:05;;;;;;;5.93;3.00;;;4.60;92.20;;;;;;5028924;28;20277;-87
2023/01/17 09:40:31;;;;;;;4.33;2.90;;;4.70;89.20;;;;;;5026910;28;20195;-87
2023/01/17 09:43:03;;;;;;;4.20;3.80;;;4.70;83.50;;;;;;5033613;28;20189;-88
2023/01/17 09:45:31;;;;;;;3.33;2.67;;;4.90;73.40;;;;;;5032594;28;20185;-87
2023/01/17 09:48:00;;;;;;;2.60;2.07;;;4.90;73.00;;;;;;5033436;28;20316;-88
2023/01/17 09:50:29;;;;;;;3.27;1.97;;;4.90;73.10;;;;;;5033387;28;20205;-90
2023/01/17 09:53:19;;;;;;;3.73;2.30;;;4.80;74.00;;;;;;5034156;28;20209;-90
2023/01/17 09:55:56;;;;;;;4.27;2.17;;;4.80;72.30;;;;;;5036189;28;20507;-88
2023/01/17 09:58:48;;;;;;;2.60;2.17;;;4.80;74.10;;;;;;5038630;28;20187;-89
2023/01/17 10:01:28;;;;;;;4.07;2.70;;;4.90;69.10;;;;;;5036495;28;20205;-89
2023/01/17 10:04:28;;;;;;;2.80;2.33;;;5.00;69.30;;;;;;5037778;28;20710;-90
2023/01/17 10:07:37;;;;;;;2.73;2.53;;;5.10;68.60;;;;;;5036406;28;20205;-89
2023/01/17 10:10:14;;;;;;;4.73;2.80;;;5.20;70.10;;;;;;5037004;28;20243;-88
2023/01/17 10:12:52;;;;;;;3.53;2.93;;;5.60;68.80;;;;;;5044191;28;20815;-86
2023/01/17 10:15:37;;;;;;;4.13;2.27;;;5.80;67.10;;;;;;5046473;28;20614;-89
2023/01/17 10:18:05;;;;;;;4.10;3.03;;;6.00;66.80;;;;;;5045427;28;20200;-88
2023/01/17 10:21:12;;;;;;;4.13;2.50;;;6.10;63.40;;;;;;5045499;28;20323;-88
2023/01/17 10:24:15;;;;;;;9.93;4.47;;;6.20;64.30;;;;;;5042010;28;20199;-88
2023/01/17 10:26:42;;;;;;;2.53;2.33;;;6.30;63.30;;;;;;5039951;28;20683;-89
2023/01/17 10:29:15;;;;;;;3.30;2.53;;;6.40;62.60;;;;;;5038199;28;20215;-87
2023/01/17 10:32:04;;;;;;;3.87;3.10;;;6.40;62.40;;;;;;5041477;28;20192;-87
2023/01/17 10:34:45;;;;;;;3.13;2.43;;;6.60;64.40;;;;;;5034978;28;20211;-89
2023/01/17 10:37:22;;;;;;;3.83;3.10;;;6.60;64.60;;;;;;5039169;28;20766;-89
2023/01/17 10:39:49;;;;;;;3.10;2.70;;;6.70;63.40;;;;;;5038246;28;20188;-88
2023/01/17 10:42:23;;;;;;;3.73;2.77;;;6.70;64.10;;;;;;5038529;28;20192;-88
2023/01/17 10:44:52;;;;;;;3.00;2.70;;;6.80;63.70;;;;;;5038079;28;20384;-88
2023/01/17 10:47:23;;;;;;;4.73;3.37;;;6.80;63.50;;;;;;5040107;28;20243;-90
2023/01/17 10:49:56;;;;;;;4.67;3.60;;;6.70;61.80;;;;;;5038927;28;20208;-88
2023/01/17 10:53:04;;;;;;;3.97;3.43;;;6.80;63.00;;;;;;5040046;28;20205;-89
2023/01/17 10:55:30;;;;;;;4.20;2.70;;;7.00;62.20;;;;;;5040805;28;20204;-88
2023/01/17 10:57:57;;;;;;;3.60;2.87;;;7.20;61.20;;;;;;5038033;28;20223;-87
2023/01/17 11:00:49;;;;;;;4.50;3.20;;;7.30;60.40;;;;;;5039626;28;21176;-89
2023/01/17 11:03:22;;;;;;;2.73;2.37;;;7.50;60.20;;;;;;5037960;28;20240;-88
2023/01/17 11:06:19;;;;;;;4.47;3.70;;;7.80;60.80;;;;;;5039368;28;20181;-88
2023/01/17 11:08:52;;;;;;;3.73;2.50;;;8.00;58.10;;;;;;5039052;28;20200;-87
2023/01/17 11:11:22;;;;;;;3.23;2.30;;;7.90;58.40;;;;;;5036519;28;20223;-86
2023/01/17 11:13:49;;;;;;;2.50;2.30;;;7.80;58.80;;;;;;5039026;28;20209;-88
2023/01/17 11:16:28;;;;;;;2.80;2.10;;;7.90;59.10;;;;;;5036155;28;20188;-88
2023/01/17 11:19:25;;;;;;;3.80;3.50;;;7.90;60.30;;;;;;5036868;28;20185;-88
2023/01/17 11:22:00;;;;;;;4.63;3.90;;;8.00;57.90;;;;;;5037869;28;20181;-88
2023/01/17 11:24:35;;;;;;;3.23;2.57;;;8.10;59.70;;;;;;5035777;28;20189;-89
2023/01/17 11:27:04;;;;;;;3.67;2.73;;;8.10;56.10;;;;;;5034001;28;20208;-87
2023/01/17 11:29:31;;;;;;;3.50;2.83;;;8.00;57.30;;;;;;5032056;28;20189;-88
2023/01/17 11:32:15;;;;;;;2.70;2.50;;;7.80;58.60;;;;;;5034737;28;20185;-89
2023/01/17 11:34:40;;;;;;;2.90;2.70;;;7.80;59.10;;;;;;5037491;28;20179;-88
2023/01/17 11:37:19;;;;;;;4.00;3.60;;;7.80;58.40;;;;;;5039822;28;20216;-88
2023/01/17 11:39:48;;;;;;;5.83;3.90;;;7.90;57.80;;;;;;5032287;28;20193;-88
2023/01/17 11:42:37;;;;;;;3.77;3.47;;;7.90;56.70;;;;;;5032419;28;20246;-91
2023/01/17 11:45:23;;;;;;;3.40;3.10;;;7.90;57.40;;;;;;5032606;28;20196;-89
2023/01/17 11:48:02;;;;;;;2.87;2.57;;;7.80;59.40;;;;;;5035292;28;20240;-87
2023/01/17 11:50:28;;;;;;;2.43;2.23;;;7.90;57.10;;;;;;5033284;28;20336;-87
2023/01/17 11:53:15;;;;;;;3.47;3.17;;;8.10;56.00;;;;;;5037560;28;20219;-88
2023/01/17 11:55:56;;;;;;;4.67;3.17;;;8.40;55.40;;;;;;5034641;28;20204;-88
2023/01/17 11:58:23;;;;;;;2.67;2.30;;;8.70;52.70;;;;;;5035292;28;20200;-88
2023/01/17 12:00:59;;;;;;;2.97;2.77;;;8.90;47.60;;;;;;5033079;28;20204;-88
2023/01/17 12:03:54;;;;;;;3.60;2.17;;;8.80;47.60;;;;;;5034181;28;20195;-87
2023/01/17 12:06:55;;;;;;;3.40;1.63;;;9.40;44.80;;;;;;5036549;28;20268;-88
2023/01/17 12:09:29;;;;;;;2.73;1.50;;;9.50;41.70;;;;;;5032756;28;20185;-87
2023/01/17 12:15:09;;;;;;;1.60;1.50;;;9.20;38.60;;;;;;4989215;28;20186;-88
2023/01/17 12:17:40;;;;;;;1.83;1.67;;;9.00;42.10;;;;;;5034554;28;20273;-88
2023/01/17 12:20:20;;;;;;;2.03;1.93;;;8.90;44.70;;;;;;5030611;28;20272;-87
2023/01/17 12:23:18;;;;;;;2.97;2.10;;;8.90;44.10;;;;;;5033174;28;20231;-89
2023/01/17 12:25:54;;;;;;;1.70;1.60;;;8.80;43.90;;;;;;5033727;28;20257;-86
2023/01/17 12:28:43;;;;;;;1.90;1.80;;;9.30;42.60;;;;;;5034502;28;20230;-88
2023/01/17 12:32:04;;;;;;;2.30;2.10;;;9.70;42.50;;;;;;5034217;28;20177;-88
2023/01/17 12:34:50;;;;;;;1.80;1.70;;;10.00;41.80;;;;;;5016006;28;20205;-87
2023/01/17 12:37:35;;;;;;;2.63;2.13;;;10.10;42.20;;;;;;5033824;28;20232;-86
2023/01/17 12:40:35;;;;;;;2.77;2.33;;;10.30;41.40;;;;;;5034009;28;20190;-89
2023/01/17 12:43:23;;;;;;;2.40;2.20;;;10.70;41.00;;;;;;5034448;28;20184;-88
2023/01/17 12:45:50;;;;;;;2.80;2.50;;;10.70;42.00;;;;;;5036129;28;20568;-88
2023/01/17 12:48:18;;;;;;;2.80;2.20;;;10.40;42.80;;;;;;5034861;28;20711;-89
2023/01/17 12:50:47;;;;;;;2.20;1.90;;;10.10;43.90;;;;;;5036767;28;20177;-87
2023/01/17 12:53:41;;;;;;;4.97;2.27;;;9.60;45.80;;;;;;5032742;28;20204;-87
2023/01/17 12:56:55;;;;;;;2.70;1.97;;;9.10;47.00;;;;;;5033739;28;20252;-88
2023/01/17 12:59:45;;;;;;;1.93;1.83;;;8.60;49.60;;;;;;4970349;28;20245;-87
2023/01/17 13:02:20;;;;;;;2.17;2.00;;;8.30;49.70;;;;;;5030270;28;20216;-87
2023/01/17 13:04:54;;;;;;;2.07;1.97;;;8.20;49.60;;;;;;5031825;28;20192;-88
2023/01/17 13:07:39;;;;;;;2.83;1.83;;;8.00;50.40;;;;;;5034091;28;20229;-88
2023/01/17 13:10:30;;;;;;;1.97;1.87;;;7.80;48.80;;;;;;5028069;28;20213;-88
2023/01/17 13:13:02;;;;;;;3.23;1.83;;;7.40;49.90;;;;;;5035004;28;20224;-89
2023/01/17 13:15:34;;;;;;;3.27;1.87;;;7.40;50.50;;;;;;5037530;28;20237;-88
2023/01/17 13:18:11;;;;;;;1.83;1.67;;;7.30;51.70;;;;;;5037305;28;21058;-88
2023/01/17 13:20:42;;;;;;;2.37;1.80;;;7.40;53.20;;;;;;5033935;28;20187;-89
2023/01/17 13:23:38;;;;;;;1.70;1.60;;;7.40;52.30;;;;;;5037124;28;20193;-87
2023/01/17 13:26:18;;;;;;;1.80;1.70;;;7.40;49.60;;;;;;5033105;28;20223;-88
2023/01/17 13:28:56;;;;;;;2.17;1.70;;;7.20;49.10;;;;;;5036014;28;20200;-90
2023/01/17 13:31:34;;;;;;;2.93;2.30;;;7.20;47.90;;;;;;5033525;28;20189;-90
2023/01/17 13:34:39;;;;;;;2.10;1.80;;;7.30;47.90;;;;;;5036786;28;20279;-89
2023/01/17 13:37:37;;;;;;;2.03;1.83;;;7.20;47.90;;;;;;5036148;28;20264;-90
2023/01/17 13:40:27;;;;;;;2.23;1.60;;;7.20;48.10;;;;;;5022456;28;20197;-90
2023/01/17 13:42:56;;;;;;;1.70;1.60;;;7.10;49.60;;;;;;5037021;28;20189;-91
2023/01/17 13:45:50;;;;;;;2.20;2.00;;;7.20;48.70;;;;;;5035897;28;21807;-89
2023/01/17 13:48:16;;;;;;;1.60;1.50;;;7.20;47.20;;;;;;5035506;28;20224;-88
2023/01/17 13:50:57;;;;;;;2.50;1.60;;;7.00;48.80;;;;;;5037705;28;20200;-88
2023/01/17 13:53:35;;;;;;;2.50;1.80;;;6.90;49.20;;;;;;5037066;28;20236;-89
2023/01/17 13:56:09;;;;;;;2.17;1.83;;;6.90;50.70;;;;;;5039156;28;20185;-88
2023/01/17 13:58:45;;;;;;;2.47;2.27;;;7.00;50.20;;;;;;5043330;28;20173;-88
2023/01/17 14:01:11;;;;;;;3.40;2.00;;;7.10;49.70;;;;;;5043040;28;20180;-88
2023/01/17 14:03:50;;;;;;;3.83;2.10;;;7.10;49.20;;;;;;5043448;28;20291;-88
2023/01/17 14:06:45;;;;;;;1.80;1.70;;;7.10;50.60;;;;;;5040761;28;20189;-89
2023/01/17 14:09:21;;;;;;;2.97;2.00;;;7.00;51.00;;;;;;5036425;28;20355;-89
2023/01/17 14:12:01;;;;;;;2.20;2.00;;;7.00;49.80;;;;;;5041444;28;20252;-88
2023/01/17 14:14:39;;;;;;;1.87;1.77;;;7.00;49.00;;;;;;5049971;28;20165;-90
2023/01/17 14:17:33;;;;;;;2.87;2.07;;;6.90;51.10;;;;;;5051214;28;20207;-90
2023/01/17 14:20:08;;;;;;;2.27;1.73;;;6.90;51.20;;;;;;5043182;28;20181;-90
2023/01/17 14:22:40;;;;;;;1.93;1.77;;;6.90;49.20;;;;;;5042055;28;20299;-87
2023/01/17 14:25:08;;;;;;;2.73;2.03;;;6.80;50.50;;;;;;5033569;28;20208;-87
2023/01/17 14:27:57;;;;;;;2.10;1.90;;;6.80;49.80;;;;;;5030237;28;20235;-88
2023/01/17 14:30:28;;;;;;;1.60;1.50;;;6.80;50.70;;;;;;5028942;28;20201;-88
2023/01/17 14:33:00;;;;;;;4.13;2.10;;;6.70;50.20;;;;;;5029641;28;20282;-89
2023/01/17 14:35:39;;;;;;;1.87;1.67;;;6.70;50.00;;;;;;5030259;28;20671;-88
2023/01/17 14:38:30;;;;;;;1.83;1.70;;;6.80;49.50;;;;;;5031510;28;20196;-88
2023/01/17 14:41:18;;;;;;;1.57;1.47;;;6.80;48.90;;;;;;5028726;28;20185;-90
2023/01/17 14:43:47;;;;;;;1.87;1.77;;;6.80;49.20;;;;;;5030372;28;20595;-90
2023/01/17 14:46:27;;;;;;;2.00;1.80;;;6.60;50.90;;;;;;5035842;28;20177;-87